createdAt,value
2016-12-01T00:00:21.244Z,0
2016-12-01T00:01:30.137Z,0
2016-12-01T00:02:39.341Z,0
2016-12-01T00:03:48.531Z,0
2016-12-01T00:04:57.414Z,0
2016-12-01T00:06:06.613Z,0
2016-12-01T00:07:15.497Z,0
2016-12-01T00:08:24.387Z,0
2016-12-01T00:09:33.369Z,0
2016-12-01T00:10:42.253Z,0
2016-12-01T00:11:50.816Z,0
2016-12-01T00:12:59.702Z,0
2016-12-01T00:14:08.590Z,0
2016-12-01T00:15:17.646Z,0
2016-12-01T00:16:26.214Z,0
2016-12-01T00:17:35.101Z,0
2016-12-01T00:18:43.667Z,0
2016-12-01T00:19:52.872Z,0
2016-12-01T00:21:01.797Z,0
2016-12-01T00:22:10.375Z,0
2016-12-01T00:23:19.263Z,0
2016-12-01T00:24:27.837Z,0
2016-12-01T00:25:36.414Z,0
2016-12-01T00:26:45.399Z,0
2016-12-01T00:27:53.970Z,0
2016-12-01T00:29:02.854Z,0
2016-12-01T00:30:11.426Z,0
2016-12-01T00:31:20.309Z,0
2016-12-01T00:32:28.925Z,0
2016-12-01T00:33:37.493Z,0
2016-12-01T00:34:46.379Z,0
2016-12-01T00:35:55.262Z,0
2016-12-01T00:37:04.147Z,0
2016-12-01T00:38:13.486Z,0
2016-12-01T00:39:22.052Z,0
2016-12-01T00:40:30.619Z,0
2016-12-01T00:41:39.184Z,0
2016-12-01T00:42:48.386Z,0
2016-12-01T00:43:57.009Z,0
2016-12-01T00:45:06.533Z,0
2016-12-01T00:46:15.418Z,0
2016-12-01T00:47:23.996Z,0
2016-12-01T00:48:32.885Z,0
2016-12-01T00:49:42.119Z,0
2016-12-01T00:50:51.007Z,0
2016-12-01T00:51:59.897Z,0
2016-12-01T00:53:09.105Z,0
2016-12-01T00:54:17.992Z,0
2016-12-01T00:55:27.281Z,0
2016-12-01T00:56:36.164Z,0
2016-12-01T00:57:44.730Z,0
2016-12-01T00:58:53.621Z,0
2016-12-01T01:00:02.507Z,0
2016-12-01T01:01:12.079Z,0
2016-12-01T01:02:20.651Z,0
2016-12-01T01:03:29.216Z,0
2016-12-01T01:04:37.784Z,0
2016-12-01T01:05:46.350Z,0
2016-12-01T01:06:55.016Z,0
2016-12-01T01:08:03.583Z,0
2016-12-01T01:09:13.104Z,0
2016-12-01T01:10:21.679Z,0
2016-12-01T01:11:30.567Z,0
2016-12-01T01:12:39.806Z,0
2016-12-01T01:13:48.374Z,0
2016-12-01T01:14:56.943Z,0
2016-12-01T01:16:05.834Z,0
2016-12-01T01:17:14.725Z,0
2016-12-01T01:18:23.648Z,0
2016-12-01T01:19:32.541Z,0
2016-12-01T01:20:42.062Z,0
2016-12-01T01:21:50.969Z,0
2016-12-01T01:22:59.536Z,0
2016-12-01T01:24:08.155Z,0
2016-12-01T01:25:17.042Z,0
2016-12-01T01:26:25.930Z,0
2016-12-01T01:27:34.493Z,0
2016-12-01T01:28:43.058Z,0
2016-12-01T01:29:52.341Z,0
2016-12-01T01:31:00.911Z,0
2016-12-01T01:32:09.512Z,0
2016-12-01T01:33:18.082Z,0
2016-12-01T01:34:26.659Z,0
2016-12-01T01:35:35.595Z,0
2016-12-01T01:36:44.479Z,0
2016-12-01T01:37:53.048Z,0
2016-12-01T01:39:01.643Z,0
2016-12-01T01:40:10.206Z,0
2016-12-01T01:41:19.438Z,0
2016-12-01T01:42:28.327Z,0
2016-12-01T01:43:36.895Z,0
2016-12-01T01:44:45.466Z,0
2016-12-01T01:45:54.031Z,0
2016-12-01T01:47:03.018Z,0
2016-12-01T01:48:11.582Z,0
2016-12-01T01:49:20.153Z,0
2016-12-01T01:50:28.718Z,0
2016-12-01T01:51:37.286Z,0
2016-12-01T01:52:45.904Z,0
2016-12-01T01:53:55.109Z,0
2016-12-01T01:55:03.989Z,0
2016-12-01T01:56:12.555Z,0
2016-12-01T01:57:21.120Z,0
2016-12-01T01:58:29.788Z,0
2016-12-01T01:59:38.356Z,0
2016-12-01T02:00:47.250Z,0
2016-12-01T02:01:56.450Z,0
2016-12-01T02:03:05.332Z,0
2016-12-01T02:04:14.672Z,0
2016-12-01T02:05:23.881Z,0
2016-12-01T02:06:33.091Z,0
2016-12-01T02:07:41.974Z,0
2016-12-01T02:08:50.541Z,0
2016-12-01T02:09:59.827Z,0
2016-12-01T02:11:08.713Z,0
2016-12-01T02:12:17.286Z,0
2016-12-01T02:13:26.492Z,0
2016-12-01T02:14:35.382Z,0
2016-12-01T02:15:44.570Z,0
2016-12-01T02:16:53.780Z,0
2016-12-01T02:18:02.347Z,0
2016-12-01T02:19:11.238Z,0
2016-12-01T02:20:19.804Z,0
2016-12-01T02:21:28.426Z,0
2016-12-01T02:22:37.310Z,0
2016-12-01T02:23:46.199Z,0
2016-12-01T02:24:54.768Z,0
2016-12-01T02:26:03.689Z,0
2016-12-01T02:27:12.365Z,0
2016-12-01T02:28:20.933Z,0
2016-12-01T02:29:29.822Z,0
2016-12-01T02:30:38.396Z,0
2016-12-01T02:31:46.961Z,0
2016-12-01T02:32:55.898Z,0
2016-12-01T02:34:05.102Z,0
2016-12-01T02:35:13.668Z,0
2016-12-01T02:36:22.878Z,0
2016-12-01T02:37:31.449Z,0
2016-12-01T02:38:40.064Z,0
2016-12-01T02:39:48.958Z,0
2016-12-01T02:40:57.522Z,0
2016-12-01T02:42:06.092Z,0
2016-12-01T02:43:14.977Z,0
2016-12-01T02:44:23.896Z,0
2016-12-01T02:45:32.463Z,0
2016-12-01T02:46:41.350Z,0
2016-12-01T02:47:49.915Z,0
2016-12-01T02:48:58.482Z,0
2016-12-01T02:50:07.417Z,0
2016-12-01T02:51:16.021Z,0
2016-12-01T02:52:25.267Z,0
2016-12-01T02:53:34.174Z,0
2016-12-01T02:54:42.747Z,0
2016-12-01T02:55:51.670Z,0
2016-12-01T02:57:00.892Z,0
2016-12-01T02:58:09.491Z,0
2016-12-01T02:59:18.392Z,0
2016-12-01T03:00:26.990Z,0
2016-12-01T03:01:35.947Z,0
2016-12-01T03:02:44.844Z,0
2016-12-01T03:03:53.725Z,0
2016-12-01T03:05:02.628Z,0
2016-12-01T03:06:11.856Z,0
2016-12-01T03:07:20.811Z,0
2016-12-01T03:08:29.386Z,0
2016-12-01T03:09:38.295Z,0
2016-12-01T03:10:47.199Z,0
2016-12-01T03:11:55.792Z,0
2016-12-01T03:13:04.769Z,0
2016-12-01T03:14:13.348Z,0
2016-12-01T03:15:21.929Z,0
2016-12-01T03:16:30.502Z,0
2016-12-01T03:17:39.733Z,0
2016-12-01T03:18:48.374Z,0
2016-12-01T03:19:57.276Z,0
2016-12-01T03:21:05.852Z,0
2016-12-01T03:22:14.437Z,0
2016-12-01T03:23:23.695Z,0
2016-12-01T03:24:32.643Z,0
2016-12-01T03:25:41.226Z,0
2016-12-01T03:26:49.821Z,0
2016-12-01T03:27:58.722Z,0
2016-12-01T03:29:07.305Z,0
2016-12-01T03:30:16.639Z,0
2016-12-01T03:31:25.226Z,0
2016-12-01T03:32:34.129Z,0
2016-12-01T03:33:42.730Z,0
2016-12-01T03:34:52.261Z,0
2016-12-01T03:36:01.209Z,0
2016-12-01T03:37:09.803Z,0
2016-12-01T03:38:19.022Z,0
2016-12-01T03:39:27.614Z,0
2016-12-01T03:40:36.513Z,0
2016-12-01T03:41:45.706Z,0
2016-12-01T03:42:54.287Z,0
2016-12-01T03:44:03.214Z,0
2016-12-01T03:45:12.473Z,0
2016-12-01T03:46:21.053Z,0
2016-12-01T03:47:29.991Z,0
2016-12-01T03:48:38.581Z,0
2016-12-01T03:49:47.492Z,0
2016-12-01T03:50:56.390Z,0
2016-12-01T03:52:04.974Z,0
2016-12-01T03:53:14.648Z,0
2016-12-01T03:54:23.223Z,0
2016-12-01T03:55:31.814Z,0
2016-12-01T03:56:40.727Z,0
2016-12-01T03:57:49.640Z,0
2016-12-01T03:58:58.837Z,0
2016-12-01T04:00:08.063Z,0
2016-12-01T04:01:16.970Z,0
2016-12-01T04:02:25.557Z,0
2016-12-01T04:03:34.136Z,0
2016-12-01T04:04:43.668Z,0
2016-12-01T04:05:52.246Z,0
2016-12-01T04:07:01.161Z,0
2016-12-01T04:08:10.069Z,0
2016-12-01T04:09:18.653Z,0
2016-12-01T04:10:27.592Z,0
2016-12-01T04:11:36.175Z,0
2016-12-01T04:12:45.068Z,0
2016-12-01T04:13:54.296Z,0
2016-12-01T04:15:03.197Z,0
2016-12-01T04:16:12.213Z,0
2016-12-01T04:17:21.111Z,0
2016-12-01T04:18:29.687Z,0
2016-12-01T04:19:38.598Z,0
2016-12-01T04:20:47.507Z,0
2016-12-01T04:21:56.150Z,0
2016-12-01T04:23:05.393Z,0
2016-12-01T04:24:14.287Z,0
2016-12-01T04:25:22.863Z,0
2016-12-01T04:26:31.437Z,0
2016-12-01T04:27:40.419Z,0
2016-12-01T04:28:49.010Z,0
2016-12-01T04:29:57.589Z,0
2016-12-01T04:31:06.182Z,0
2016-12-01T04:32:14.763Z,0
2016-12-01T04:33:23.682Z,0
2016-12-01T04:34:32.300Z,0
2016-12-01T04:35:40.892Z,0
2016-12-01T04:36:50.150Z,0
2016-12-01T04:37:59.063Z,0
2016-12-01T04:39:08.302Z,0
2016-12-01T04:40:16.890Z,0
2016-12-01T04:41:26.126Z,0
2016-12-01T04:42:34.702Z,0
2016-12-01T04:43:43.295Z,0
2016-12-01T04:44:51.968Z,0
2016-12-01T04:46:00.542Z,0
2016-12-01T04:47:09.118Z,0
2016-12-01T04:48:17.701Z,0
2016-12-01T04:49:26.924Z,0
2016-12-01T04:50:35.871Z,0
2016-12-01T04:51:44.455Z,0
2016-12-01T04:52:53.047Z,0
2016-12-01T04:54:01.634Z,0
2016-12-01T04:55:10.232Z,0
2016-12-01T04:56:19.827Z,0
2016-12-01T04:57:28.404Z,0
2016-12-01T04:58:37.304Z,0
2016-12-01T04:59:46.194Z,0
2016-12-01T05:00:55.088Z,0
2016-12-01T05:02:04.475Z,0
2016-12-01T05:03:13.368Z,0
2016-12-01T05:04:21.957Z,0
2016-12-01T05:05:30.541Z,0
2016-12-01T05:06:39.458Z,0
2016-12-01T05:07:48.081Z,0
2016-12-01T05:08:56.647Z,0
2016-12-01T05:10:05.242Z,0
2016-12-01T05:11:13.820Z,0
2016-12-01T05:12:22.728Z,0
2016-12-01T05:13:31.366Z,0
2016-12-01T05:14:40.602Z,0
2016-12-01T05:15:50.137Z,0
2016-12-01T05:16:59.993Z,0
2016-12-01T05:18:08.902Z,0
2016-12-01T05:19:17.844Z,0
2016-12-01T05:20:26.429Z,0
2016-12-01T05:21:35.020Z,0
2016-12-01T05:22:43.610Z,0
2016-12-01T05:23:52.220Z,0
2016-12-01T05:25:01.758Z,0
2016-12-01T05:26:10.341Z,0
2016-12-01T05:27:19.257Z,0
2016-12-01T05:28:27.834Z,0
2016-12-01T05:29:36.408Z,0
2016-12-01T05:30:45.440Z,0
2016-12-01T05:31:54.026Z,0
2016-12-01T05:33:02.620Z,0
2016-12-01T05:34:11.198Z,0
2016-12-01T05:35:20.097Z,0
2016-12-01T05:36:28.972Z,0
2016-12-01T05:37:37.857Z,0
2016-12-01T05:38:46.437Z,0
2016-12-01T05:39:55.020Z,0
2016-12-01T05:41:03.603Z,0
2016-12-01T05:42:12.227Z,0
2016-12-01T05:43:20.811Z,0
2016-12-01T05:44:30.034Z,0
2016-12-01T05:45:38.931Z,0
2016-12-01T05:46:47.824Z,0
2016-12-01T05:47:56.775Z,0
2016-12-01T05:49:05.359Z,0
2016-12-01T05:50:13.936Z,0
2016-12-01T05:51:23.152Z,0
2016-12-01T05:52:31.733Z,0
2016-12-01T05:53:40.989Z,0
2016-12-01T05:54:49.582Z,0
2016-12-01T05:55:58.781Z,0
2016-12-01T05:57:07.366Z,0
2016-12-01T05:58:15.942Z,0
2016-12-01T05:59:25.213Z,0
2016-12-01T06:00:34.104Z,0
2016-12-01T06:01:42.998Z,0
2016-12-01T06:02:51.903Z,0
2016-12-01T06:04:00.808Z,0
2016-12-01T06:05:10.089Z,0
2016-12-01T06:06:18.996Z,0
2016-12-01T06:07:27.916Z,0
2016-12-01T06:08:36.821Z,0
2016-12-01T06:09:45.399Z,0
2016-12-01T06:10:54.095Z,0
2016-12-01T06:12:03.009Z,0
2016-12-01T06:13:11.603Z,0
2016-12-01T06:14:20.503Z,0
2016-12-01T06:15:29.416Z,0
2016-12-01T06:16:38.099Z,0
2016-12-01T06:17:46.680Z,0
2016-12-01T06:18:55.585Z,0
2016-12-01T06:20:04.488Z,0
2016-12-01T06:21:13.083Z,0
2016-12-01T06:22:22.339Z,0
2016-12-01T06:23:30.936Z,0
2016-12-01T06:24:39.847Z,0
2016-12-01T06:25:48.754Z,0
2016-12-01T06:26:57.335Z,0
2016-12-01T06:28:06.022Z,0
2016-12-01T06:29:14.617Z,0
2016-12-01T06:30:23.196Z,0
2016-12-01T06:31:32.752Z,0
2016-12-01T06:32:41.344Z,0
2016-12-01T06:33:50.237Z,0
2016-12-01T06:34:59.450Z,0
2016-12-01T06:36:08.356Z,0
2016-12-01T06:37:17.261Z,0
2016-12-01T06:38:26.172Z,0
2016-12-01T06:39:35.453Z,0
2016-12-01T06:40:44.029Z,0
2016-12-01T06:41:52.629Z,0
2016-12-01T06:43:01.892Z,0
2016-12-01T06:44:10.784Z,0
2016-12-01T06:45:20.153Z,0
2016-12-01T06:46:29.377Z,0
2016-12-01T06:47:38.598Z,0
2016-12-01T06:48:47.177Z,0
2016-12-01T06:49:56.401Z,0
2016-12-01T06:51:05.686Z,0
2016-12-01T06:52:14.258Z,0
2016-12-01T06:53:23.191Z,0
2016-12-01T06:54:32.089Z,0
2016-12-01T06:55:40.989Z,0
2016-12-01T06:56:50.245Z,0
2016-12-01T06:57:59.162Z,0
2016-12-01T06:59:08.076Z,0
2016-12-01T07:00:16.996Z,0
2016-12-01T07:01:25.906Z,0
2016-12-01T07:02:35.117Z,0
2016-12-01T07:03:44.663Z,0
2016-12-01T07:04:53.565Z,0
2016-12-01T07:06:02.483Z,0
2016-12-01T07:07:11.394Z,0
2016-12-01T07:08:20.029Z,0
2016-12-01T07:09:28.957Z,0
2016-12-01T07:10:37.534Z,0
2016-12-01T07:11:46.438Z,0
2016-12-01T07:12:55.986Z,0
2016-12-01T07:14:04.862Z,0
2016-12-01T07:15:13.462Z,0
2016-12-01T07:16:22.393Z,5
2016-12-01T07:17:31.311Z,5
2016-12-01T07:18:39.894Z,5
2016-12-01T07:19:48.571Z,5
2016-12-01T07:20:57.168Z,5
2016-12-01T07:22:06.722Z,5
2016-12-01T07:23:15.627Z,10
2016-12-01T07:24:24.532Z,10
2016-12-01T07:25:33.476Z,10
2016-12-01T07:26:42.386Z,10
2016-12-01T07:27:51.620Z,10
2016-12-01T07:29:00.838Z,10
2016-12-01T07:30:09.739Z,15
2016-12-01T07:31:18.371Z,15
2016-12-01T07:32:27.285Z,15
2016-12-01T07:33:36.202Z,15
2016-12-01T07:34:44.781Z,20
2016-12-01T07:35:53.996Z,20
2016-12-01T07:37:03.520Z,20
2016-12-01T07:38:12.747Z,20
2016-12-01T07:39:21.964Z,20
2016-12-01T07:40:30.551Z,25
2016-12-01T07:41:39.462Z,25
2016-12-01T07:42:48.392Z,25
2016-12-01T07:43:57.299Z,25
2016-12-01T07:45:06.186Z,30
2016-12-01T07:46:15.402Z,30
2016-12-01T07:47:23.979Z,30
2016-12-01T07:48:32.922Z,30
2016-12-01T07:49:41.845Z,30
2016-12-01T07:50:50.765Z,30
2016-12-01T07:51:59.358Z,35
2016-12-01T07:53:07.939Z,35
2016-12-01T07:54:17.212Z,40
2016-12-01T07:55:26.120Z,40
2016-12-01T07:56:35.029Z,40
2016-12-01T07:57:43.629Z,40
2016-12-01T07:58:52.534Z,40
2016-12-01T08:00:01.497Z,35
2016-12-01T08:01:10.070Z,35
2016-12-01T08:02:19.002Z,35
2016-12-01T08:03:27.928Z,40
2016-12-01T08:04:36.844Z,45
2016-12-01T08:05:46.090Z,45
2016-12-01T08:06:55.018Z,50
2016-12-01T08:08:03.913Z,45
2016-12-01T08:09:12.816Z,50
2016-12-01T08:10:21.748Z,55
2016-12-01T08:11:31.342Z,55
2016-12-01T08:12:40.561Z,55
2016-12-01T08:13:49.471Z,55
2016-12-01T08:14:58.374Z,60
2016-12-01T08:16:07.927Z,60
2016-12-01T08:17:16.575Z,60
2016-12-01T08:18:25.805Z,55
2016-12-01T08:19:35.042Z,55
2016-12-01T08:20:43.645Z,60
2016-12-01T08:21:52.228Z,60
2016-12-01T08:23:00.860Z,60
2016-12-01T08:24:09.439Z,60
2016-12-01T08:25:18.358Z,60
2016-12-01T08:26:26.958Z,65
2016-12-01T08:27:35.532Z,80
2016-12-01T08:28:45.178Z,85
2016-12-01T08:29:54.081Z,75
2016-12-01T08:31:02.978Z,70
2016-12-01T08:32:11.553Z,70
2016-12-01T08:33:20.478Z,70
2016-12-01T08:34:29.465Z,70
2016-12-01T08:35:38.040Z,70
2016-12-01T08:36:46.634Z,75
2016-12-01T08:37:55.235Z,80
2016-12-01T08:39:03.820Z,90
2016-12-01T08:40:13.129Z,100
2016-12-01T08:41:21.704Z,105
2016-12-01T08:42:30.297Z,105
2016-12-01T08:43:39.844Z,110
2016-12-01T08:44:48.423Z,135
2016-12-01T08:45:58.025Z,145
2016-12-01T08:47:06.623Z,155
2016-12-01T08:48:15.546Z,165
2016-12-01T08:49:24.457Z,160
2016-12-01T08:50:33.385Z,160
2016-12-01T08:51:42.336Z,155
2016-12-01T08:52:51.279Z,130
2016-12-01T08:54:00.579Z,120
2016-12-01T08:55:09.805Z,130
2016-12-01T08:56:18.391Z,115
2016-12-01T08:57:27.661Z,100
2016-12-01T08:58:36.248Z,100
2016-12-01T08:59:45.156Z,95
2016-12-01T09:00:54.403Z,85
2016-12-01T09:02:03.331Z,85
2016-12-01T09:03:12.732Z,80
2016-12-01T09:04:21.335Z,90
2016-12-01T09:05:29.927Z,95
2016-12-01T09:06:38.866Z,85
2016-12-01T09:07:47.788Z,85
2016-12-01T09:08:56.741Z,85
2016-12-01T09:10:05.334Z,85
2016-12-01T09:11:14.226Z,85
2016-12-01T09:12:22.814Z,90
2016-12-01T09:13:32.025Z,100
2016-12-01T09:14:40.964Z,120
2016-12-01T09:15:49.870Z,155
2016-12-01T09:16:58.764Z,180
2016-12-01T09:18:07.354Z,180
2016-12-01T09:19:16.263Z,185
2016-12-01T09:20:25.206Z,185
2016-12-01T09:21:34.117Z,170
2016-12-01T09:22:42.715Z,165
2016-12-01T09:23:51.631Z,170
2016-12-01T09:25:00.229Z,175
2016-12-01T09:26:08.850Z,180
2016-12-01T09:27:17.451Z,175
2016-12-01T09:28:26.050Z,140
2016-12-01T09:29:35.260Z,145
2016-12-01T09:30:43.855Z,140
2016-12-01T09:31:52.497Z,130
2016-12-01T09:33:01.388Z,135
2016-12-01T09:34:09.980Z,115
2016-12-01T09:35:18.932Z,120
2016-12-01T09:36:27.521Z,125
2016-12-01T09:37:36.447Z,105
2016-12-01T09:38:45.026Z,85
2016-12-01T09:39:53.626Z,80
2016-12-01T09:41:02.252Z,90
2016-12-01T09:42:10.820Z,80
2016-12-01T09:43:19.782Z,80
2016-12-01T09:44:28.699Z,90
2016-12-01T09:45:37.284Z,115
2016-12-01T09:46:46.519Z,120
2016-12-01T09:47:55.422Z,125
2016-12-01T09:49:04.057Z,125
2016-12-01T09:50:12.984Z,135
2016-12-01T09:51:22.198Z,140
2016-12-01T09:52:30.785Z,110
2016-12-01T09:53:40.020Z,130
2016-12-01T09:54:49.336Z,140
2016-12-01T09:55:58.568Z,150
2016-12-01T09:57:07.473Z,200
2016-12-01T09:58:16.380Z,250
2016-12-01T09:59:24.965Z,270
2016-12-01T10:00:33.928Z,250
2016-12-01T10:01:42.837Z,235
2016-12-01T10:02:52.063Z,230
2016-12-01T10:04:00.962Z,220
2016-12-01T10:05:09.862Z,215
2016-12-01T10:06:19.111Z,235
2016-12-01T10:07:28.334Z,255
2016-12-01T10:08:37.563Z,285
2016-12-01T10:09:46.450Z,285
2016-12-01T10:10:55.365Z,270
2016-12-01T10:12:04.009Z,240
2016-12-01T10:13:12.901Z,205
2016-12-01T10:14:21.817Z,240
2016-12-01T10:15:30.756Z,255
2016-12-01T10:16:39.391Z,245
2016-12-01T10:17:48.727Z,250
2016-12-01T10:18:58.307Z,255
2016-12-01T10:20:07.228Z,250
2016-12-01T10:21:16.130Z,250
2016-12-01T10:22:25.343Z,230
2016-12-01T10:23:34.300Z,225
2016-12-01T10:24:43.206Z,230
2016-12-01T10:25:52.101Z,245
2016-12-01T10:27:00.701Z,270
2016-12-01T10:28:09.283Z,270
2016-12-01T10:29:18.870Z,240
2016-12-01T10:30:27.448Z,205
2016-12-01T10:31:36.343Z,210
2016-12-01T10:32:44.937Z,235
2016-12-01T10:33:53.529Z,300
2016-12-01T10:35:02.525Z,335
2016-12-01T10:36:11.426Z,325
2016-12-01T10:37:20.014Z,305
2016-12-01T10:38:28.905Z,290
2016-12-01T10:39:37.492Z,260
2016-12-01T10:40:46.520Z,225
2016-12-01T10:41:55.104Z,200
2016-12-01T10:43:03.999Z,195
2016-12-01T10:44:12.584Z,215
2016-12-01T10:45:21.187Z,220
2016-12-01T10:46:30.453Z,190
2016-12-01T10:47:39.022Z,175
2016-12-01T10:48:47.924Z,170
2016-12-01T10:49:56.508Z,155
2016-12-01T10:51:05.435Z,150
2016-12-01T10:52:14.395Z,165
2016-12-01T10:53:22.997Z,170
2016-12-01T10:54:31.909Z,160
2016-12-01T10:55:40.500Z,150
2016-12-01T10:56:49.081Z,145
2016-12-01T10:57:57.772Z,170
2016-12-01T10:59:06.675Z,175
2016-12-01T11:00:15.263Z,165
2016-12-01T11:01:24.171Z,160
2016-12-01T11:02:32.753Z,160
2016-12-01T11:03:42.070Z,160
2016-12-01T11:04:50.651Z,170
2016-12-01T11:05:59.241Z,160
2016-12-01T11:07:07.834Z,145
2016-12-01T11:08:16.427Z,135
2016-12-01T11:09:25.357Z,145
2016-12-01T11:10:34.581Z,175
2016-12-01T11:11:43.816Z,215
2016-12-01T11:12:52.414Z,220
2016-12-01T11:14:01.367Z,195
2016-12-01T11:15:10.629Z,160
2016-12-01T11:16:19.536Z,155
2016-12-01T11:17:28.447Z,155
2016-12-01T11:18:37.984Z,160
2016-12-01T11:19:46.895Z,130
2016-12-01T11:20:55.889Z,105
2016-12-01T11:22:04.473Z,105
2016-12-01T11:23:13.390Z,200
2016-12-01T11:24:21.981Z,180
2016-12-01T11:25:30.899Z,135
2016-12-01T11:26:39.553Z,135
2016-12-01T11:27:48.455Z,145
2016-12-01T11:28:57.366Z,140
2016-12-01T11:30:06.254Z,135
2016-12-01T11:31:14.844Z,190
2016-12-01T11:32:24.066Z,230
2016-12-01T11:33:32.667Z,270
2016-12-01T11:34:41.564Z,295
2016-12-01T11:35:50.474Z,295
2016-12-01T11:36:59.066Z,280
2016-12-01T11:38:08.010Z,275
2016-12-01T11:39:16.577Z,280
2016-12-01T11:40:25.795Z,245
2016-12-01T11:41:34.709Z,225
2016-12-01T11:42:43.630Z,235
2016-12-01T11:43:52.906Z,215
2016-12-01T11:45:01.504Z,180
2016-12-01T11:46:10.735Z,150
2016-12-01T11:47:19.328Z,210
2016-12-01T11:48:27.920Z,175
2016-12-01T11:49:37.192Z,135
2016-12-01T11:50:46.433Z,105
2016-12-01T11:51:55.363Z,105
2016-12-01T11:53:04.577Z,130
2016-12-01T11:54:13.179Z,130
2016-12-01T11:55:22.545Z,155
2016-12-01T11:56:31.445Z,130
2016-12-01T11:57:40.372Z,115
2016-12-01T11:58:49.288Z,100
2016-12-01T11:59:57.877Z,95
2016-12-01T12:01:06.867Z,115
2016-12-01T12:02:15.443Z,135
2016-12-01T12:03:24.028Z,115
2016-12-01T12:04:32.930Z,90
2016-12-01T12:05:41.506Z,75
2016-12-01T12:06:50.395Z,90
2016-12-01T12:07:58.999Z,85
2016-12-01T12:09:07.913Z,75
2016-12-01T12:10:17.149Z,100
2016-12-01T12:11:26.052Z,95
2016-12-01T12:12:35.464Z,85
2016-12-01T12:13:44.072Z,90
2016-12-01T12:14:52.663Z,85
2016-12-01T12:16:01.255Z,70
2016-12-01T12:17:09.827Z,100
2016-12-01T12:18:19.356Z,110
2016-12-01T12:19:28.258Z,95
2016-12-01T12:20:36.854Z,100
2016-12-01T12:21:46.105Z,100
2016-12-01T12:22:54.699Z,110
2016-12-01T12:24:03.898Z,125
2016-12-01T12:25:13.156Z,145
2016-12-01T12:26:21.737Z,195
2016-12-01T12:27:30.630Z,235
2016-12-01T12:28:39.527Z,255
2016-12-01T12:29:48.779Z,255
2016-12-01T12:30:57.356Z,260
2016-12-01T12:32:05.953Z,250
2016-12-01T12:33:14.541Z,230
2016-12-01T12:34:23.173Z,215
2016-12-01T12:35:32.192Z,220
2016-12-01T12:36:41.089Z,215
2016-12-01T12:37:50.331Z,195
2016-12-01T12:38:59.244Z,220
2016-12-01T12:40:07.837Z,225
2016-12-01T12:41:17.136Z,210
2016-12-01T12:42:25.735Z,225
2016-12-01T12:43:34.648Z,200
2016-12-01T12:44:43.886Z,200
2016-12-01T12:45:53.117Z,220
2016-12-01T12:47:01.769Z,200
2016-12-01T12:48:10.355Z,195
2016-12-01T12:49:19.251Z,205
2016-12-01T12:50:28.812Z,195
2016-12-01T12:51:37.405Z,195
2016-12-01T12:52:46.088Z,220
2016-12-01T12:53:54.993Z,280
2016-12-01T12:55:03.890Z,305
2016-12-01T12:56:12.832Z,290
2016-12-01T12:57:21.737Z,275
2016-12-01T12:58:30.708Z,265
2016-12-01T12:59:39.620Z,245
2016-12-01T13:00:48.213Z,255
2016-12-01T13:01:57.187Z,255
2016-12-01T13:03:05.791Z,250
2016-12-01T13:04:14.788Z,210
2016-12-01T13:05:23.368Z,205
2016-12-01T13:06:32.288Z,190
2016-12-01T13:07:41.194Z,180
2016-12-01T13:08:49.778Z,185
2016-12-01T13:09:58.731Z,165
2016-12-01T13:11:07.641Z,160
2016-12-01T13:12:16.550Z,135
2016-12-01T13:13:25.465Z,115
2016-12-01T13:14:34.053Z,110
2016-12-01T13:15:43.059Z,55
2016-12-01T13:16:51.649Z,85
2016-12-01T13:18:00.551Z,55
2016-12-01T13:19:09.131Z,60
2016-12-01T13:20:17.716Z,105
2016-12-01T13:21:26.687Z,110
2016-12-01T13:22:35.277Z,110
2016-12-01T13:23:44.202Z,110
2016-12-01T13:24:53.139Z,140
2016-12-01T13:26:02.387Z,170
2016-12-01T13:27:11.746Z,180
2016-12-01T13:28:20.666Z,185
2016-12-01T13:29:29.260Z,180
2016-12-01T13:30:37.849Z,205
2016-12-01T13:31:47.405Z,200
2016-12-01T13:32:56.370Z,165
2016-12-01T13:34:05.266Z,130
2016-12-01T13:35:13.854Z,110
2016-12-01T13:36:22.468Z,105
2016-12-01T13:37:31.054Z,100
2016-12-01T13:38:40.412Z,115
2016-12-01T13:39:49.012Z,145
2016-12-01T13:40:57.604Z,175
2016-12-01T13:42:06.509Z,175
2016-12-01T13:43:15.084Z,160
2016-12-01T13:44:24.078Z,185
2016-12-01T13:45:33.302Z,185
2016-12-01T13:46:42.185Z,180
2016-12-01T13:47:51.103Z,185
2016-12-01T13:48:59.679Z,170
2016-12-01T13:50:08.377Z,175
2016-12-01T13:51:17.604Z,170
2016-12-01T13:52:26.509Z,155
2016-12-01T13:53:35.425Z,140
2016-12-01T13:54:44.024Z,130
2016-12-01T13:55:53.916Z,115
2016-12-01T13:57:02.810Z,105
2016-12-01T13:58:11.387Z,80
2016-12-01T13:59:19.973Z,85
2016-12-01T14:00:28.881Z,90
2016-12-01T14:01:38.477Z,75
2016-12-01T14:02:47.699Z,65
2016-12-01T14:03:56.311Z,55
2016-12-01T14:05:05.263Z,40
2016-12-01T14:06:13.887Z,45
2016-12-01T14:07:23.508Z,40
2016-12-01T14:08:32.092Z,40
2016-12-01T14:09:41.320Z,30
2016-12-01T14:10:50.218Z,30
2016-12-01T14:11:58.803Z,35
2016-12-01T14:13:07.478Z,35
2016-12-01T14:14:16.391Z,25
2016-12-01T14:15:24.984Z,30
2016-12-01T14:16:33.895Z,40
2016-12-01T14:17:43.119Z,35
2016-12-01T14:18:52.077Z,35
2016-12-01T14:20:01.293Z,60
2016-12-01T14:21:09.895Z,80
2016-12-01T14:22:18.809Z,80
2016-12-01T14:23:27.392Z,90
2016-12-01T14:24:36.073Z,95
2016-12-01T14:25:44.970Z,95
2016-12-01T14:26:53.884Z,100
2016-12-01T14:28:02.792Z,90
2016-12-01T14:29:11.376Z,80
2016-12-01T14:30:20.751Z,70
2016-12-01T14:31:29.649Z,55
2016-12-01T14:32:38.240Z,55
2016-12-01T14:33:47.143Z,50
2016-12-01T14:34:55.716Z,50
2016-12-01T14:36:05.020Z,40
2016-12-01T14:37:13.938Z,30
2016-12-01T14:38:22.844Z,35
2016-12-01T14:39:31.441Z,35
2016-12-01T14:40:40.038Z,35
2016-12-01T14:41:48.999Z,35
2016-12-01T14:42:58.257Z,35
2016-12-01T14:44:07.157Z,35
2016-12-01T14:45:17.038Z,35
2016-12-01T14:46:26.578Z,40
2016-12-01T14:47:35.207Z,40
2016-12-01T14:48:44.115Z,40
2016-12-01T14:49:52.692Z,40
2016-12-01T14:51:01.926Z,45
2016-12-01T14:52:10.820Z,45
2016-12-01T14:53:20.083Z,40
2016-12-01T14:54:28.662Z,35
2016-12-01T14:55:37.876Z,30
2016-12-01T14:56:46.778Z,25
2016-12-01T14:57:55.675Z,25
2016-12-01T14:59:04.609Z,20
2016-12-01T15:00:13.185Z,20
2016-12-01T15:01:22.093Z,20
2016-12-01T15:02:30.679Z,20
2016-12-01T15:03:39.610Z,15
2016-12-01T15:04:48.284Z,15
2016-12-01T15:05:56.877Z,15
2016-12-01T15:07:06.130Z,10
2016-12-01T15:08:15.035Z,10
2016-12-01T15:09:23.982Z,10
2016-12-01T15:10:33.327Z,5
2016-12-01T15:11:41.918Z,5
2016-12-01T15:12:51.506Z,5
2016-12-01T15:14:00.095Z,0
2016-12-01T15:15:08.667Z,0
2016-12-01T15:16:17.949Z,5
2016-12-01T15:17:27.184Z,0
2016-12-01T15:18:35.769Z,0
2016-12-01T15:19:44.369Z,0
2016-12-01T15:20:52.943Z,0
2016-12-01T15:22:02.198Z,0
2016-12-01T15:23:11.109Z,0
2016-12-01T15:24:20.334Z,0
2016-12-01T15:25:29.559Z,0
2016-12-01T15:26:38.136Z,0
2016-12-01T15:27:47.045Z,0
2016-12-01T15:28:55.943Z,0
2016-12-01T15:30:04.532Z,0
2016-12-01T15:31:13.117Z,0
2016-12-01T15:32:22.028Z,0
2016-12-01T15:33:30.934Z,0
2016-12-01T15:34:39.534Z,0
2016-12-01T15:35:48.436Z,0
2016-12-01T15:36:57.028Z,0
2016-12-01T15:38:05.937Z,0
2016-12-01T15:39:15.201Z,0
2016-12-01T15:40:23.794Z,0
2016-12-01T15:41:32.370Z,0
2016-12-01T15:42:40.944Z,0
2016-12-01T15:43:49.838Z,0
2016-12-01T15:44:59.033Z,0
2016-12-01T15:46:07.608Z,0
2016-12-01T15:47:16.183Z,0
2016-12-01T15:48:25.094Z,0
2016-12-01T15:49:33.991Z,0
2016-12-01T15:50:42.927Z,0
2016-12-01T15:51:51.512Z,0
2016-12-01T15:53:00.098Z,0
2016-12-01T15:54:09.325Z,0
2016-12-01T15:55:18.232Z,0
2016-12-01T15:56:27.198Z,0
2016-12-01T15:57:35.782Z,0
2016-12-01T15:58:44.693Z,0
2016-12-01T15:59:53.275Z,0
2016-12-01T16:01:02.813Z,0
2016-12-01T16:02:11.774Z,0
2016-12-01T16:03:20.676Z,0
2016-12-01T16:04:29.898Z,0
2016-12-01T16:05:38.801Z,0
2016-12-01T16:06:47.387Z,0
2016-12-01T16:07:57.074Z,0
2016-12-01T16:09:05.992Z,0
2016-12-01T16:10:14.606Z,0
2016-12-01T16:11:23.207Z,0
2016-12-01T16:12:32.119Z,0
2016-12-01T16:13:41.623Z,0
2016-12-01T16:14:50.225Z,0
2016-12-01T16:15:59.128Z,0
2016-12-01T16:17:07.709Z,0
2016-12-01T16:18:16.281Z,0
2016-12-01T16:19:25.846Z,0
2016-12-01T16:20:34.749Z,0
2016-12-01T16:21:43.656Z,0
2016-12-01T16:22:52.566Z,0
2016-12-01T16:24:01.469Z,0
2016-12-01T16:25:10.398Z,0
2016-12-01T16:26:18.972Z,0
2016-12-01T16:27:27.559Z,0
2016-12-01T16:28:36.792Z,0
2016-12-01T16:29:45.681Z,0
2016-12-01T16:30:55.002Z,0